sensor_id;sensor_type;location;lat;lon;timestamp;P1;durP1;ratioP1;P2;durP2;ratioP2
20154;SDS011;10238;49.556;10.956;2023-02-08T00:01:18;20.67;;;12.23;;
20154;SDS011;10238;49.556;10.956;2023-02-08T00:04:10;22.60;;;12.75;;
20154;SDS011;10238;49.556;10.956;2023-02-08T00:07:01;24.88;;;12.98;;
20154;SDS011;10238;49.556;10.956;2023-02-08T00:09:51;25.48;;;12.55;;
20154;SDS011;10238;49.556;10.956;2023-02-08T00:12:42;23.00;;;11.73;;
20154;SDS011;10238;49.556;10.956;2023-02-08T00:15:33;21.17;;;13.02;;
20154;SDS011;10238;49.556;10.956;2023-02-08T00:18:26;26.13;;;12.90;;
20154;SDS011;10238;49.556;10.956;2023-02-08T00:21:17;21.25;;;11.35;;
20154;SDS011;10238;49.556;10.956;2023-02-08T00:24:08;24.02;;;11.68;;
20154;SDS011;10238;49.556;10.956;2023-02-08T00:26:58;25.30;;;12.45;;
20154;SDS011;10238;49.556;10.956;2023-02-08T00:29:49;24.52;;;12.75;;
20154;SDS011;10238;49.556;10.956;2023-02-08T00:32:40;23.75;;;13.27;;
20154;SDS011;10238;49.556;10.956;2023-02-08T00:35:29;18.25;;;11.25;;
20154;SDS011;10238;49.556;10.956;2023-02-08T00:38:19;20.10;;;11.02;;
20154;SDS011;10238;49.556;10.956;2023-02-08T00:41:08;23.98;;;11.45;;
20154;SDS011;10238;49.556;10.956;2023-02-08T00:43:59;21.13;;;11.63;;
20154;SDS011;10238;49.556;10.956;2023-02-08T00:46:51;22.65;;;11.35;;
20154;SDS011;10238;49.556;10.956;2023-02-08T00:49:42;18.10;;;11.32;;
20154;SDS011;10238;49.556;10.956;2023-02-08T00:52:33;24.55;;;11.52;;
20154;SDS011;10238;49.556;10.956;2023-02-08T00:55:24;20.35;;;11.13;;
20154;SDS011;10238;49.556;10.956;2023-02-08T00:58:15;18.88;;;10.40;;
20154;SDS011;10238;49.556;10.956;2023-02-08T01:01:06;19.85;;;10.20;;
20154;SDS011;10238;49.556;10.956;2023-02-08T01:03:58;21.05;;;10.50;;
20154;SDS011;10238;49.556;10.956;2023-02-08T01:06:49;20.80;;;11.53;;
20154;SDS011;10238;49.556;10.956;2023-02-08T01:09:40;23.17;;;10.88;;
20154;SDS011;10238;49.556;10.956;2023-02-08T01:12:31;19.67;;;11.05;;
20154;SDS011;10238;49.556;10.956;2023-02-08T01:15:22;19.08;;;10.65;;
20154;SDS011;10238;49.556;10.956;2023-02-08T01:18:13;17.77;;;10.10;;
20154;SDS011;10238;49.556;10.956;2023-02-08T01:21:06;20.45;;;10.80;;
20154;SDS011;10238;49.556;10.956;2023-02-08T01:23:57;17.95;;;10.55;;
20154;SDS011;10238;49.556;10.956;2023-02-08T01:26:48;20.88;;;10.88;;
20154;SDS011;10238;49.556;10.956;2023-02-08T01:29:39;18.73;;;10.38;;
20154;SDS011;10238;49.556;10.956;2023-02-08T01:32:30;22.33;;;10.73;;
20154;SDS011;10238;49.556;10.956;2023-02-08T01:35:21;18.48;;;10.07;;
20154;SDS011;10238;49.556;10.956;2023-02-08T01:38:13;17.90;;;10.15;;
20154;SDS011;10238;49.556;10.956;2023-02-08T01:41:04;22.10;;;10.68;;
20154;SDS011;10238;49.556;10.956;2023-02-08T01:47:27;18.85;;;10.88;;
20154;SDS011;10238;49.556;10.956;2023-02-08T01:50:17;18.15;;;10.40;;
20154;SDS011;10238;49.556;10.956;2023-02-08T01:53:14;19.73;;;10.50;;
20154;SDS011;10238;49.556;10.956;2023-02-08T01:56:06;21.88;;;11.68;;
20154;SDS011;10238;49.556;10.956;2023-02-08T01:58:59;21.90;;;10.85;;
20154;SDS011;10238;49.556;10.956;2023-02-08T02:01:53;22.30;;;10.98;;
20154;SDS011;10238;49.556;10.956;2023-02-08T02:04:46;18.23;;;9.85;;
20154;SDS011;10238;49.556;10.956;2023-02-08T02:07:38;19.33;;;11.18;;
20154;SDS011;10238;49.556;10.956;2023-02-08T02:10:31;20.75;;;10.88;;
20154;SDS011;10238;49.556;10.956;2023-02-08T02:13:24;19.23;;;10.70;;
20154;SDS011;10238;49.556;10.956;2023-02-08T02:16:16;22.00;;;10.38;;
20154;SDS011;10238;49.556;10.956;2023-02-08T02:19:15;20.50;;;11.65;;
20154;SDS011;10238;49.556;10.956;2023-02-08T02:22:17;19.58;;;10.70;;
20154;SDS011;10238;49.556;10.956;2023-02-08T02:25:33;26.42;;;11.55;;
20154;SDS011;10238;49.556;10.956;2023-02-08T02:28:47;18.80;;;10.13;;
20154;SDS011;10238;49.556;10.956;2023-02-08T02:31:56;27.23;;;12.70;;
20154;SDS011;10238;49.556;10.956;2023-02-08T02:35:09;22.92;;;11.38;;
20154;SDS011;10238;49.556;10.956;2023-02-08T02:38:06;19.20;;;10.35;;
20154;SDS011;10238;49.556;10.956;2023-02-08T02:41:05;20.05;;;10.50;;
20154;SDS011;10238;49.556;10.956;2023-02-08T02:44:24;19.98;;;9.80;;
20154;SDS011;10238;49.556;10.956;2023-02-08T02:47:25;20.15;;;10.13;;
20154;SDS011;10238;49.556;10.956;2023-02-08T02:50:23;18.13;;;10.38;;
20154;SDS011;10238;49.556;10.956;2023-02-08T02:53:21;19.75;;;10.50;;
20154;SDS011;10238;49.556;10.956;2023-02-08T02:56:23;17.27;;;10.27;;
20154;SDS011;10238;49.556;10.956;2023-02-08T02:59:16;20.58;;;11.40;;
20154;SDS011;10238;49.556;10.956;2023-02-08T03:02:08;25.90;;;11.63;;
20154;SDS011;10238;49.556;10.956;2023-02-08T03:05:01;20.95;;;11.27;;
20154;SDS011;10238;49.556;10.956;2023-02-08T03:07:59;25.10;;;11.60;;
20154;SDS011;10238;49.556;10.956;2023-02-08T03:11:02;16.92;;;10.25;;
20154;SDS011;10238;49.556;10.956;2023-02-08T03:14:05;20.48;;;10.82;;
20154;SDS011;10238;49.556;10.956;2023-02-08T03:17:21;23.50;;;10.73;;
20154;SDS011;10238;49.556;10.956;2023-02-08T03:20:23;19.42;;;11.63;;
20154;SDS011;10238;49.556;10.956;2023-02-08T03:23:18;22.63;;;11.65;;
20154;SDS011;10238;49.556;10.956;2023-02-08T03:26:15;19.55;;;9.88;;
20154;SDS011;10238;49.556;10.956;2023-02-08T03:29:16;20.40;;;10.57;;
20154;SDS011;10238;49.556;10.956;2023-02-08T03:32:16;19.90;;;10.88;;
20154;SDS011;10238;49.556;10.956;2023-02-08T03:35:10;19.65;;;10.00;;
20154;SDS011;10238;49.556;10.956;2023-02-08T03:38:09;18.02;;;9.85;;
20154;SDS011;10238;49.556;10.956;2023-02-08T03:41:03;18.52;;;10.55;;
20154;SDS011;10238;49.556;10.956;2023-02-08T03:43:58;22.13;;;11.20;;
20154;SDS011;10238;49.556;10.956;2023-02-08T03:46:54;17.98;;;9.50;;
20154;SDS011;10238;49.556;10.956;2023-02-08T03:49:48;20.83;;;10.02;;
20154;SDS011;10238;49.556;10.956;2023-02-08T03:52:40;23.10;;;11.20;;
20154;SDS011;10238;49.556;10.956;2023-02-08T03:55:35;19.15;;;10.50;;
20154;SDS011;10238;49.556;10.956;2023-02-08T03:58:30;19.90;;;10.55;;
20154;SDS011;10238;49.556;10.956;2023-02-08T04:01:28;17.45;;;9.57;;
20154;SDS011;10238;49.556;10.956;2023-02-08T04:04:28;19.08;;;10.13;;
20154;SDS011;10238;49.556;10.956;2023-02-08T04:07:22;20.65;;;10.48;;
20154;SDS011;10238;49.556;10.956;2023-02-08T04:10:13;19.60;;;10.07;;
20154;SDS011;10238;49.556;10.956;2023-02-08T04:13:06;20.45;;;10.02;;
20154;SDS011;10238;49.556;10.956;2023-02-08T04:15:57;17.13;;;10.27;;
20154;SDS011;10238;49.556;10.956;2023-02-08T04:18:48;22.20;;;11.25;;
20154;SDS011;10238;49.556;10.956;2023-02-08T04:21:39;17.90;;;10.40;;
20154;SDS011;10238;49.556;10.956;2023-02-08T04:24:30;19.85;;;10.82;;
20154;SDS011;10238;49.556;10.956;2023-02-08T04:27:21;18.65;;;10.75;;
20154;SDS011;10238;49.556;10.956;2023-02-08T04:30:14;20.33;;;10.52;;
20154;SDS011;10238;49.556;10.956;2023-02-08T04:33:05;22.00;;;10.52;;
20154;SDS011;10238;49.556;10.956;2023-02-08T04:36:01;18.30;;;9.85;;
20154;SDS011;10238;49.556;10.956;2023-02-08T04:38:52;20.02;;;11.02;;
20154;SDS011;10238;49.556;10.956;2023-02-08T04:41:43;20.52;;;10.75;;
20154;SDS011;10238;49.556;10.956;2023-02-08T04:44:34;18.00;;;10.02;;
20154;SDS011;10238;49.556;10.956;2023-02-08T04:47:27;19.77;;;10.27;;
20154;SDS011;10238;49.556;10.956;2023-02-08T04:50:17;16.02;;;9.98;;
20154;SDS011;10238;49.556;10.956;2023-02-08T04:53:09;20.00;;;10.05;;
20154;SDS011;10238;49.556;10.956;2023-02-08T04:56:00;18.95;;;10.27;;
20154;SDS011;10238;49.556;10.956;2023-02-08T04:58:50;18.08;;;9.57;;
20154;SDS011;10238;49.556;10.956;2023-02-08T05:01:41;19.02;;;10.02;;
20154;SDS011;10238;49.556;10.956;2023-02-08T05:04:34;17.20;;;9.85;;
20154;SDS011;10238;49.556;10.956;2023-02-08T05:07:25;20.98;;;10.00;;
20154;SDS011;10238;49.556;10.956;2023-02-08T05:10:17;27.15;;;10.82;;
20154;SDS011;10238;49.556;10.956;2023-02-08T05:13:08;18.80;;;9.55;;
20154;SDS011;10238;49.556;10.956;2023-02-08T05:15:59;18.35;;;10.48;;
20154;SDS011;10238;49.556;10.956;2023-02-08T05:18:50;19.05;;;10.27;;
20154;SDS011;10238;49.556;10.956;2023-02-08T05:21:43;17.20;;;9.35;;
20154;SDS011;10238;49.556;10.956;2023-02-08T05:24:34;13.53;;;8.53;;
20154;SDS011;10238;49.556;10.956;2023-02-08T05:27:25;17.63;;;10.18;;
20154;SDS011;10238;49.556;10.956;2023-02-08T05:30:16;20.33;;;9.93;;
20154;SDS011;10238;49.556;10.956;2023-02-08T05:33:07;19.60;;;9.73;;
20154;SDS011;10238;49.556;10.956;2023-02-08T05:35:58;24.17;;;11.38;;
20154;SDS011;10238;49.556;10.956;2023-02-08T05:38:51;27.65;;;10.45;;
20154;SDS011;10238;49.556;10.956;2023-02-08T05:41:42;21.38;;;10.77;;
20154;SDS011;10238;49.556;10.956;2023-02-08T05:44:33;18.25;;;10.18;;
20154;SDS011;10238;49.556;10.956;2023-02-08T05:47:24;21.13;;;10.30;;
20154;SDS011;10238;49.556;10.956;2023-02-08T05:50:14;19.67;;;10.02;;
20154;SDS011;10238;49.556;10.956;2023-02-08T05:53:06;18.00;;;10.43;;
20154;SDS011;10238;49.556;10.956;2023-02-08T05:55:58;23.42;;;10.40;;
20154;SDS011;10238;49.556;10.956;2023-02-08T05:58:49;16.73;;;8.80;;
20154;SDS011;10238;49.556;10.956;2023-02-08T06:01:40;21.27;;;10.80;;
20154;SDS011;10238;49.556;10.956;2023-02-08T06:04:30;20.08;;;10.25;;
20154;SDS011;10238;49.556;10.956;2023-02-08T06:07:23;17.73;;;10.15;;
20154;SDS011;10238;49.556;10.956;2023-02-08T06:10:14;16.30;;;9.27;;
20154;SDS011;10238;49.556;10.956;2023-02-08T06:13:07;18.27;;;10.05;;
20154;SDS011;10238;49.556;10.956;2023-02-08T06:15:58;20.77;;;11.98;;
20154;SDS011;10238;49.556;10.956;2023-02-08T06:18:49;18.63;;;10.05;;
20154;SDS011;10238;49.556;10.956;2023-02-08T06:21:41;23.48;;;12.20;;
20154;SDS011;10238;49.556;10.956;2023-02-08T06:24:32;16.33;;;9.73;;
20154;SDS011;10238;49.556;10.956;2023-02-08T06:27:23;17.15;;;9.93;;
20154;SDS011;10238;49.556;10.956;2023-02-08T06:30:16;17.73;;;9.70;;
20154;SDS011;10238;49.556;10.956;2023-02-08T06:33:06;18.15;;;10.77;;
20154;SDS011;10238;49.556;10.956;2023-02-08T06:36:00;19.10;;;9.55;;
20154;SDS011;10238;49.556;10.956;2023-02-08T06:38:51;23.80;;;10.77;;
20154;SDS011;10238;49.556;10.956;2023-02-08T06:41:42;20.85;;;10.38;;
20154;SDS011;10238;49.556;10.956;2023-02-08T06:44:33;15.88;;;9.38;;
20154;SDS011;10238;49.556;10.956;2023-02-08T06:47:40;22.63;;;10.48;;
20154;SDS011;10238;49.556;10.956;2023-02-08T06:50:31;20.75;;;10.65;;
20154;SDS011;10238;49.556;10.956;2023-02-08T06:53:22;21.38;;;10.45;;
20154;SDS011;10238;49.556;10.956;2023-02-08T06:56:13;21.17;;;9.75;;
20154;SDS011;10238;49.556;10.956;2023-02-08T06:59:04;25.60;;;11.10;;
20154;SDS011;10238;49.556;10.956;2023-02-08T07:01:55;18.15;;;10.13;;
20154;SDS011;10238;49.556;10.956;2023-02-08T07:04:47;14.48;;;8.95;;
20154;SDS011;10238;49.556;10.956;2023-02-08T07:07:39;20.88;;;10.05;;
20154;SDS011;10238;49.556;10.956;2023-02-08T07:10:30;17.60;;;10.05;;
20154;SDS011;10238;49.556;10.956;2023-02-08T07:13:24;22.35;;;10.15;;
20154;SDS011;10238;49.556;10.956;2023-02-08T07:16:15;17.70;;;9.93;;
20154;SDS011;10238;49.556;10.956;2023-02-08T07:19:06;19.38;;;9.05;;
20154;SDS011;10238;49.556;10.956;2023-02-08T07:21:59;19.92;;;9.48;;
20154;SDS011;10238;49.556;10.956;2023-02-08T07:24:52;21.48;;;12.00;;
20154;SDS011;10238;49.556;10.956;2023-02-08T07:27:44;18.30;;;9.38;;
20154;SDS011;10238;49.556;10.956;2023-02-08T07:30:35;20.85;;;10.10;;
20154;SDS011;10238;49.556;10.956;2023-02-08T07:33:26;20.40;;;10.38;;
20154;SDS011;10238;49.556;10.956;2023-02-08T07:36:17;21.23;;;10.40;;
20154;SDS011;10238;49.556;10.956;2023-02-08T07:39:10;22.38;;;10.90;;
20154;SDS011;10238;49.556;10.956;2023-02-08T07:42:01;24.05;;;11.88;;
20154;SDS011;10238;49.556;10.956;2023-02-08T07:44:53;32.23;;;14.70;;
20154;SDS011;10238;49.556;10.956;2023-02-08T07:47:44;31.10;;;14.65;;
20154;SDS011;10238;49.556;10.956;2023-02-08T07:50:35;33.10;;;14.52;;
20154;SDS011;10238;49.556;10.956;2023-02-08T07:53:27;26.55;;;13.27;;
20154;SDS011;10238;49.556;10.956;2023-02-08T07:56:19;32.53;;;12.98;;
20154;SDS011;10238;49.556;10.956;2023-02-08T07:59:10;17.65;;;9.15;;
20154;SDS011;10238;49.556;10.956;2023-02-08T08:02:01;34.13;;;13.23;;
20154;SDS011;10238;49.556;10.956;2023-02-08T08:04:52;37.22;;;14.18;;
20154;SDS011;10238;49.556;10.956;2023-02-08T08:07:43;30.50;;;14.15;;
20154;SDS011;10238;49.556;10.956;2023-02-08T08:10:34;31.95;;;14.55;;
20154;SDS011;10238;49.556;10.956;2023-02-08T08:13:26;32.78;;;14.55;;
20154;SDS011;10238;49.556;10.956;2023-02-08T08:16:18;33.42;;;14.82;;
20154;SDS011;10238;49.556;10.956;2023-02-08T08:19:09;27.48;;;13.45;;
20154;SDS011;10238;49.556;10.956;2023-02-08T08:22:00;32.78;;;14.52;;
20154;SDS011;10238;49.556;10.956;2023-02-08T08:24:51;30.08;;;14.32;;
20154;SDS011;10238;49.556;10.956;2023-02-08T08:27:43;28.90;;;14.05;;
20154;SDS011;10238;49.556;10.956;2023-02-08T08:30:36;30.25;;;12.55;;
20154;SDS011;10238;49.556;10.956;2023-02-08T08:33:28;36.35;;;15.20;;
20154;SDS011;10238;49.556;10.956;2023-02-08T08:36:18;32.58;;;14.88;;
20154;SDS011;10238;49.556;10.956;2023-02-08T08:39:08;35.33;;;15.05;;
20154;SDS011;10238;49.556;10.956;2023-02-08T08:41:58;36.95;;;15.93;;
20154;SDS011;10238;49.556;10.956;2023-02-08T08:44:48;30.20;;;13.82;;
20154;SDS011;10238;49.556;10.956;2023-02-08T08:47:40;35.15;;;13.95;;
20154;SDS011;10238;49.556;10.956;2023-02-08T08:50:30;35.63;;;15.82;;
20154;SDS011;10238;49.556;10.956;2023-02-08T08:53:19;32.17;;;15.15;;
20154;SDS011;10238;49.556;10.956;2023-02-08T08:56:10;33.67;;;14.77;;
20154;SDS011;10238;49.556;10.956;2023-02-08T08:59:00;37.80;;;16.15;;
20154;SDS011;10238;49.556;10.956;2023-02-08T09:01:49;34.30;;;15.70;;
20154;SDS011;10238;49.556;10.956;2023-02-08T09:04:42;29.42;;;15.50;;
20154;SDS011;10238;49.556;10.956;2023-02-08T09:07:31;32.25;;;14.82;;
20154;SDS011;10238;49.556;10.956;2023-02-08T09:10:22;34.38;;;13.88;;
20154;SDS011;10238;49.556;10.956;2023-02-08T09:13:11;34.65;;;15.77;;
20154;SDS011;10238;49.556;10.956;2023-02-08T09:16:04;33.75;;;14.65;;
20154;SDS011;10238;49.556;10.956;2023-02-08T09:18:55;33.60;;;14.93;;
20154;SDS011;10238;49.556;10.956;2023-02-08T09:21:47;34.88;;;15.18;;
20154;SDS011;10238;49.556;10.956;2023-02-08T09:24:37;32.20;;;15.07;;
20154;SDS011;10238;49.556;10.956;2023-02-08T09:27:27;35.70;;;15.38;;
20154;SDS011;10238;49.556;10.956;2023-02-08T09:30:17;30.20;;;15.20;;
20154;SDS011;10238;49.556;10.956;2023-02-08T09:33:06;30.13;;;13.98;;
20154;SDS011;10238;49.556;10.956;2023-02-08T09:35:56;28.95;;;14.73;;
20154;SDS011;10238;49.556;10.956;2023-02-08T09:38:48;28.20;;;12.65;;
20154;SDS011;10238;49.556;10.956;2023-02-08T09:45:23;32.58;;;14.30;;
20154;SDS011;10238;49.556;10.956;2023-02-08T09:48:33;31.15;;;14.13;;
20154;SDS011;10238;49.556;10.956;2023-02-08T09:51:27;27.20;;;14.18;;
20154;SDS011;10238;49.556;10.956;2023-02-08T09:54:23;28.73;;;12.63;;
20154;SDS011;10238;49.556;10.956;2023-02-08T09:57:18;29.98;;;13.55;;
20154;SDS011;10238;49.556;10.956;2023-02-08T10:00:13;32.00;;;15.45;;
20154;SDS011;10238;49.556;10.956;2023-02-08T10:03:07;28.83;;;13.57;;
20154;SDS011;10238;49.556;10.956;2023-02-08T10:06:19;29.02;;;13.38;;
20154;SDS011;10238;49.556;10.956;2023-02-08T10:09:10;25.42;;;12.10;;
20154;SDS011;10238;49.556;10.956;2023-02-08T10:12:05;25.92;;;12.57;;
20154;SDS011;10238;49.556;10.956;2023-02-08T10:15:05;29.35;;;12.75;;
20154;SDS011;10238;49.556;10.956;2023-02-08T10:18:08;22.38;;;11.13;;
20154;SDS011;10238;49.556;10.956;2023-02-08T10:21:12;23.02;;;11.70;;
20154;SDS011;10238;49.556;10.956;2023-02-08T10:24:28;26.95;;;12.13;;
20154;SDS011;10238;49.556;10.956;2023-02-08T10:27:35;24.60;;;12.05;;
20154;SDS011;10238;49.556;10.956;2023-02-08T10:30:34;19.63;;;10.57;;
20154;SDS011;10238;49.556;10.956;2023-02-08T10:33:31;24.23;;;11.18;;
20154;SDS011;10238;49.556;10.956;2023-02-08T10:36:26;23.02;;;11.65;;
20154;SDS011;10238;49.556;10.956;2023-02-08T10:39:21;20.65;;;10.52;;
20154;SDS011;10238;49.556;10.956;2023-02-08T10:42:14;23.75;;;10.70;;
20154;SDS011;10238;49.556;10.956;2023-02-08T10:45:14;19.25;;;9.98;;
20154;SDS011;10238;49.556;10.956;2023-02-08T10:48:11;17.73;;;9.63;;
20154;SDS011;10238;49.556;10.956;2023-02-08T10:51:09;21.33;;;10.02;;
20154;SDS011;10238;49.556;10.956;2023-02-08T10:54:02;21.25;;;10.77;;
20154;SDS011;10238;49.556;10.956;2023-02-08T10:56:53;20.25;;;10.38;;
20154;SDS011;10238;49.556;10.956;2023-02-08T10:59:47;21.58;;;10.10;;
20154;SDS011;10238;49.556;10.956;2023-02-08T11:02:42;22.65;;;10.50;;
20154;SDS011;10238;49.556;10.956;2023-02-08T11:05:34;21.90;;;11.05;;
20154;SDS011;10238;49.556;10.956;2023-02-08T11:11:16;23.63;;;10.27;;
20154;SDS011;10238;49.556;10.956;2023-02-08T11:14:07;20.00;;;10.55;;
20154;SDS011;10238;49.556;10.956;2023-02-08T11:17:01;18.50;;;10.10;;
20154;SDS011;10238;49.556;10.956;2023-02-08T11:20:19;20.77;;;10.15;;
20154;SDS011;10238;49.556;10.956;2023-02-08T11:23:19;17.90;;;9.52;;
20154;SDS011;10238;49.556;10.956;2023-02-08T11:26:15;19.95;;;9.93;;
20154;SDS011;10238;49.556;10.956;2023-02-08T11:29:11;20.73;;;10.25;;
20154;SDS011;10238;49.556;10.956;2023-02-08T11:32:13;23.38;;;10.15;;
20154;SDS011;10238;49.556;10.956;2023-02-08T11:35:10;18.20;;;9.93;;
20154;SDS011;10238;49.556;10.956;2023-02-08T11:38:08;16.52;;;9.48;;
20154;SDS011;10238;49.556;10.956;2023-02-08T11:41:13;18.17;;;10.13;;
20154;SDS011;10238;49.556;10.956;2023-02-08T11:44:04;18.48;;;10.20;;
20154;SDS011;10238;49.556;10.956;2023-02-08T11:47:02;18.15;;;10.43;;
20154;SDS011;10238;49.556;10.956;2023-02-08T11:49:56;15.88;;;8.88;;
20154;SDS011;10238;49.556;10.956;2023-02-08T11:55:43;16.10;;;9.35;;
20154;SDS011;10238;49.556;10.956;2023-02-08T11:58:31;18.45;;;9.52;;
20154;SDS011;10238;49.556;10.956;2023-02-08T12:01:20;18.08;;;10.15;;
20154;SDS011;10238;49.556;10.956;2023-02-08T12:04:11;16.10;;;9.52;;
20154;SDS011;10238;49.556;10.956;2023-02-08T12:07:08;18.05;;;10.38;;
20154;SDS011;10238;49.556;10.956;2023-02-08T12:10:22;18.30;;;10.18;;
20154;SDS011;10238;49.556;10.956;2023-02-08T12:16:28;15.38;;;8.40;;
20154;SDS011;10238;49.556;10.956;2023-02-08T12:19:40;15.18;;;9.07;;
20154;SDS011;10238;49.556;10.956;2023-02-08T12:22:54;14.60;;;8.88;;
20154;SDS011;10238;49.556;10.956;2023-02-08T12:25:54;16.65;;;9.68;;
20154;SDS011;10238;49.556;10.956;2023-02-08T12:29:02;15.55;;;8.70;;
20154;SDS011;10238;49.556;10.956;2023-02-08T12:32:05;17.52;;;9.38;;
20154;SDS011;10238;49.556;10.956;2023-02-08T12:35:16;15.07;;;8.48;;
20154;SDS011;10238;49.556;10.956;2023-02-08T12:38:42;16.30;;;9.98;;
20154;SDS011;10238;49.556;10.956;2023-02-08T12:42:11;15.95;;;8.70;;
20154;SDS011;10238;49.556;10.956;2023-02-08T12:45:34;16.02;;;9.57;;
20154;SDS011;10238;49.556;10.956;2023-02-08T12:48:43;13.77;;;9.32;;
20154;SDS011;10238;49.556;10.956;2023-02-08T12:51:47;17.60;;;9.93;;
20154;SDS011;10238;49.556;10.956;2023-02-08T12:54:41;14.73;;;9.38;;
20154;SDS011;10238;49.556;10.956;2023-02-08T12:57:36;15.68;;;10.50;;
20154;SDS011;10238;49.556;10.956;2023-02-08T13:00:25;15.02;;;8.98;;
20154;SDS011;10238;49.556;10.956;2023-02-08T13:03:25;19.23;;;11.55;;
20154;SDS011;10238;49.556;10.956;2023-02-08T13:06:24;18.98;;;11.40;;
20154;SDS011;10238;49.556;10.956;2023-02-08T13:09:17;19.83;;;11.13;;
20154;SDS011;10238;49.556;10.956;2023-02-08T13:12:26;22.20;;;11.65;;
20154;SDS011;10238;49.556;10.956;2023-02-08T13:15:21;15.20;;;9.65;;
20154;SDS011;10238;49.556;10.956;2023-02-08T13:18:17;18.55;;;10.20;;
20154;SDS011;10238;49.556;10.956;2023-02-08T13:21:12;19.00;;;10.23;;
20154;SDS011;10238;49.556;10.956;2023-02-08T13:24:09;19.17;;;10.18;;
20154;SDS011;10238;49.556;10.956;2023-02-08T13:27:13;20.85;;;11.40;;
20154;SDS011;10238;49.556;10.956;2023-02-08T13:30:14;17.65;;;10.48;;
20154;SDS011;10238;49.556;10.956;2023-02-08T13:33:10;18.77;;;11.05;;
20154;SDS011;10238;49.556;10.956;2023-02-08T13:36:04;21.13;;;11.00;;
20154;SDS011;10238;49.556;10.956;2023-02-08T13:39:06;17.08;;;10.18;;
20154;SDS011;10238;49.556;10.956;2023-02-08T13:42:18;20.73;;;11.30;;
20154;SDS011;10238;49.556;10.956;2023-02-08T13:45:20;19.70;;;11.20;;
20154;SDS011;10238;49.556;10.956;2023-02-08T13:48:16;19.13;;;11.88;;
20154;SDS011;10238;49.556;10.956;2023-02-08T13:51:05;20.00;;;12.48;;
20154;SDS011;10238;49.556;10.956;2023-02-08T13:54:44;17.00;;;10.65;;
20154;SDS011;10238;49.556;10.956;2023-02-08T14:05:34;17.50;;;10.60;;
20154;SDS011;10238;49.556;10.956;2023-02-08T14:08:33;17.58;;;9.95;;
20154;SDS011;10238;49.556;10.956;2023-02-08T14:11:33;19.27;;;11.40;;
20154;SDS011;10238;49.556;10.956;2023-02-08T14:14:30;17.35;;;11.27;;
20154;SDS011;10238;49.556;10.956;2023-02-08T14:17:27;17.50;;;9.63;;
20154;SDS011;10238;49.556;10.956;2023-02-08T14:20:16;18.17;;;10.23;;
20154;SDS011;10238;49.556;10.956;2023-02-08T14:23:20;17.15;;;10.75;;
20154;SDS011;10238;49.556;10.956;2023-02-08T14:29:15;17.58;;;9.98;;
20154;SDS011;10238;49.556;10.956;2023-02-08T14:35:15;17.73;;;10.35;;
20154;SDS011;10238;49.556;10.956;2023-02-08T14:41:45;19.50;;;11.18;;
20154;SDS011;10238;49.556;10.956;2023-02-08T14:47:51;16.92;;;10.18;;
20154;SDS011;10238;49.556;10.956;2023-02-08T14:50:54;18.60;;;10.80;;
20154;SDS011;10238;49.556;10.956;2023-02-08T14:54:02;17.05;;;9.40;;
20154;SDS011;10238;49.556;10.956;2023-02-08T14:57:05;17.83;;;10.02;;
20154;SDS011;10238;49.556;10.956;2023-02-08T15:00:14;18.00;;;10.07;;
20154;SDS011;10238;49.556;10.956;2023-02-08T15:03:11;15.57;;;9.65;;
20154;SDS011;10238;49.556;10.956;2023-02-08T15:09:40;19.60;;;10.23;;
20154;SDS011;10238;49.556;10.956;2023-02-08T15:12:33;15.85;;;9.63;;
20154;SDS011;10238;49.556;10.956;2023-02-08T15:15:27;15.98;;;9.90;;
20154;SDS011;10238;49.556;10.956;2023-02-08T15:18:21;14.95;;;10.15;;
20154;SDS011;10238;49.556;10.956;2023-02-08T15:21:14;17.38;;;9.82;;
20154;SDS011;10238;49.556;10.956;2023-02-08T15:24:12;17.73;;;9.90;;
20154;SDS011;10238;49.556;10.956;2023-02-08T15:27:15;17.63;;;10.40;;
20154;SDS011;10238;49.556;10.956;2023-02-08T15:33:13;16.52;;;9.43;;
20154;SDS011;10238;49.556;10.956;2023-02-08T15:36:05;18.23;;;10.95;;
20154;SDS011;10238;49.556;10.956;2023-02-08T15:39:01;16.05;;;10.25;;
20154;SDS011;10238;49.556;10.956;2023-02-08T15:41:57;17.20;;;10.48;;
20154;SDS011;10238;49.556;10.956;2023-02-08T15:44:45;17.85;;;11.18;;
20154;SDS011;10238;49.556;10.956;2023-02-08T15:47:35;18.08;;;10.80;;
20154;SDS011;10238;49.556;10.956;2023-02-08T15:50:24;18.33;;;10.32;;
20154;SDS011;10238;49.556;10.956;2023-02-08T15:53:14;17.02;;;10.00;;
20154;SDS011;10238;49.556;10.956;2023-02-08T15:56:03;19.45;;;10.35;;
20154;SDS011;10238;49.556;10.956;2023-02-08T15:58:52;18.58;;;10.90;;
20154;SDS011;10238;49.556;10.956;2023-02-08T16:01:45;18.75;;;10.77;;
20154;SDS011;10238;49.556;10.956;2023-02-08T16:04:41;17.02;;;10.48;;
20154;SDS011;10238;49.556;10.956;2023-02-08T16:07:32;19.52;;;10.38;;
20154;SDS011;10238;49.556;10.956;2023-02-08T16:10:27;16.97;;;10.17;;
20154;SDS011;10238;49.556;10.956;2023-02-08T16:13:20;17.75;;;10.32;;
20154;SDS011;10238;49.556;10.956;2023-02-08T16:16:13;17.27;;;9.90;;
20154;SDS011;10238;49.556;10.956;2023-02-08T16:19:05;15.75;;;9.23;;
20154;SDS011;10238;49.556;10.956;2023-02-08T16:22:21;18.83;;;10.38;;
20154;SDS011;10238;49.556;10.956;2023-02-08T16:25:24;21.73;;;11.68;;
20154;SDS011;10238;49.556;10.956;2023-02-08T16:28:28;17.98;;;10.80;;
20154;SDS011;10238;49.556;10.956;2023-02-08T16:31:19;15.48;;;9.60;;
20154;SDS011;10238;49.556;10.956;2023-02-08T16:34:13;17.13;;;9.98;;
20154;SDS011;10238;49.556;10.956;2023-02-08T16:37:04;18.75;;;10.25;;
20154;SDS011;10238;49.556;10.956;2023-02-08T16:40:32;18.20;;;9.13;;
20154;SDS011;10238;49.556;10.956;2023-02-08T16:43:33;20.52;;;9.27;;
20154;SDS011;10238;49.556;10.956;2023-02-08T16:46:28;17.83;;;9.20;;
20154;SDS011;10238;49.556;10.956;2023-02-08T16:49:19;17.00;;;9.35;;
20154;SDS011;10238;49.556;10.956;2023-02-08T16:52:17;16.65;;;9.25;;
20154;SDS011;10238;49.556;10.956;2023-02-08T16:55:14;16.92;;;9.40;;
20154;SDS011;10238;49.556;10.956;2023-02-08T16:58:05;19.08;;;9.13;;
20154;SDS011;10238;49.556;10.956;2023-02-08T17:00:59;20.30;;;10.57;;
20154;SDS011;10238;49.556;10.956;2023-02-08T17:03:47;16.80;;;9.30;;
20154;SDS011;10238;49.556;10.956;2023-02-08T17:06:39;15.43;;;8.55;;
20154;SDS011;10238;49.556;10.956;2023-02-08T17:09:32;19.92;;;10.25;;
20154;SDS011;10238;49.556;10.956;2023-02-08T17:12:19;18.63;;;10.25;;
20154;SDS011;10238;49.556;10.956;2023-02-08T17:15:07;16.83;;;9.35;;
20154;SDS011;10238;49.556;10.956;2023-02-08T17:17:56;19.80;;;10.50;;
20154;SDS011;10238;49.556;10.956;2023-02-08T17:20:44;19.00;;;10.95;;
20154;SDS011;10238;49.556;10.956;2023-02-08T17:23:31;20.45;;;10.43;;
20154;SDS011;10238;49.556;10.956;2023-02-08T17:26:21;19.70;;;10.57;;
20154;SDS011;10238;49.556;10.956;2023-02-08T17:29:12;21.85;;;11.65;;
20154;SDS011;10238;49.556;10.956;2023-02-08T17:31:59;22.40;;;11.68;;
20154;SDS011;10238;49.556;10.956;2023-02-08T17:34:48;27.40;;;13.27;;